Time;durP1;ratioP1;P1;durP2;ratioP2;P2;SDS_P1;SDS_P2;PMS_P1;PMS_P2;Temp;Humidity;BMP_temperature;BMP_pressure;BME280_temperature;BME280_humidity;BME280_pressure;Samples;Min_cycle;Max_cycle;Signal;HPM_P1;HPM_P2
2022/06/25 00:00:47;;;;;;;4.17;3.55;;;;;;;18.93;58.02;99505.52;1676520;84;21557;-66
2022/06/25 00:03:14;;;;;;;4.42;3.52;;;;;;;18.88;57.85;99494.40;1661723;84;21576;-66
2022/06/25 00:05:41;;;;;;;6.67;4.17;;;;;;;18.84;58.00;99503.95;1667734;84;21467;-66
2022/06/25 00:08:08;;;;;;;6.35;3.33;;;;;;;18.81;58.07;99500.19;1667290;84;21565;-66
2022/06/25 00:10:34;;;;;;;5.47;3.95;;;;;;;18.77;58.24;99504.53;1676431;84;21127;-65
2022/06/25 00:13:01;;;;;;;4.35;3.37;;;;;;;18.74;58.40;99500.77;1666200;84;21820;-65
2022/06/25 00:15:28;;;;;;;5.85;3.65;;;;;;;18.73;58.73;99508.41;1661497;84;21080;-66
2022/06/25 00:17:55;;;;;;;4.75;3.20;;;;;;;18.72;58.86;99506.70;1671618;84;21064;-65
2022/06/25 00:20:21;;;;;;;5.78;3.42;;;;;;;18.71;59.07;99509.02;1670743;84;21479;-65
2022/06/25 00:22:48;;;;;;;6.58;3.50;;;;;;;18.72;59.17;99514.20;1675471;84;21488;-68
2022/06/25 00:25:14;;;;;;;4.97;3.58;;;;;;;18.72;59.11;99510.70;1649259;85;21897;-66
2022/06/25 00:27:41;;;;;;;4.55;3.37;;;;;;;18.72;59.13;99512.03;1645533;85;21478;-65
2022/06/25 00:30:08;;;;;;;5.42;3.10;;;;;;;18.70;59.08;99509.97;1632215;84;21617;-65
2022/06/25 00:32:35;;;;;;;7.53;3.67;;;;;;;18.70;59.02;99515.30;1650859;85;21627;-65
2022/06/25 00:35:03;;;;;;;6.33;4.00;;;;;;;18.68;58.95;99512.29;1618619;87;20974;-65
2022/06/25 00:37:30;;;;;;;6.45;3.10;;;;;;;18.65;58.90;99514.34;1629928;86;21738;-65
2022/06/25 00:39:57;;;;;;;6.37;3.40;;;;;;;18.62;59.11;99512.75;1622325;87;21565;-65
2022/06/25 00:42:24;;;;;;;4.08;3.70;;;;;;;18.58;59.20;99513.96;1650709;85;21929;-65
2022/06/25 00:44:56;;;;;;;6.70;3.35;;;;;;;18.57;59.25;99515.41;1649513;85;21603;-65
2022/06/25 00:47:19;;;;;;;3.98;3.33;;;;;;;18.53;59.25;99520.12;1639187;85;21520;-65
2022/06/25 00:49:46;;;;;;;5.30;3.45;;;;;;;18.49;59.28;99507.53;1645972;85;21773;-66
2022/06/25 00:52:18;;;;;;;6.10;3.47;;;;;;;18.49;59.38;99514.67;1611354;87;21454;-66
2022/06/25 00:54:54;;;;;;;4.10;3.35;;;;;;;18.49;59.66;99522.66;1644435;85;21422;-66
2022/06/25 00:57:28;;;;;;;4.20;3.58;;;;;;;18.45;59.65;99511.89;1638853;85;21491;-66
2022/06/25 00:59:58;;;;;;;4.30;3.87;;;;;;;18.42;59.85;99518.77;1641608;85;21601;-66
2022/06/25 01:02:25;;;;;;;5.20;3.37;;;;;;;18.41;59.83;99524.59;1644672;85;22071;-66
2022/06/25 01:04:52;;;;;;;5.50;3.47;;;;;;;18.41;59.93;99527.74;1633788;86;21534;-66
2022/06/25 01:07:19;;;;;;;3.83;3.53;;;;;;;18.40;59.82;99522.05;1637090;86;21515;-66
2022/06/25 01:09:49;;;;;;;9.03;3.90;;;;;;;18.35;59.93;99518.91;1650053;85;21479;-66
2022/06/25 01:12:17;;;;;;;5.10;3.30;;;;;;;18.33;59.88;99524.80;1637802;85;20978;-66
2022/06/25 01:14:45;;;;;;;;;;;;;;;18.32;60.15;99520.47;1649960;85;21453;-65
2022/06/25 01:17:12;;;;;;;;;;;;;;;18.26;60.40;99514.64;1614783;87;20256;-65
2022/06/25 01:20:34;;;;;;;5.60;3.75;;;;;;;17.67;63.61;99523.48;1788572;78;23152;-63
2022/06/25 01:23:01;;;;;;;3.77;3.47;;;;;;;18.21;61.01;99518.13;1704049;81;21495;-63
2022/06/25 01:25:35;;;;;;;4.58;4.10;;;;;;;18.20;60.80;99520.44;1693169;83;22029;-64
2022/06/25 01:28:03;;;;;;;3.80;3.50;;;;;;;18.18;60.74;99520.20;1737810;81;21431;-64
2022/06/25 01:30:32;;;;;;;3.77;3.47;;;;;;;18.13;60.85;99524.53;1716396;82;21391;-65
2022/06/25 01:32:59;;;;;;;3.70;3.30;;;;;;;18.11;60.81;99528.28;1728734;82;21527;-64
2022/06/25 01:35:25;;;;;;;5.92;3.42;;;;;;;18.10;61.13;99528.73;1720090;82;21620;-65
2022/06/25 01:37:53;;;;;;;4.67;3.25;;;;;;;18.19;61.37;99529.37;1713953;82;22116;-65
2022/06/25 01:40:19;;;;;;;5.03;3.30;;;;;;;18.23;61.29;99522.88;1715065;82;21442;-65
2022/06/25 01:43:00;;;;;;;4.90;3.87;;;;;;;18.20;61.36;99528.91;1723172;82;21465;-66
2022/06/25 01:45:32;;;;;;;4.65;3.25;;;;;;;18.13;61.45;99531.17;1709957;82;21515;-65
2022/06/25 01:47:59;;;;;;;5.75;3.75;;;;;;;18.09;61.42;99531.05;1721800;82;21545;-66
2022/06/25 01:50:27;;;;;;;3.25;3.05;;;;;;;18.04;61.54;99531.88;1721010;82;22108;-65
2022/06/25 01:52:55;;;;;;;4.17;3.02;;;;;;;18.04;62.03;99534.53;1715189;82;21544;-66
2022/06/25 01:55:22;;;;;;;5.73;3.30;;;;;;;18.10;61.92;99535.39;1719823;82;21482;-66
2022/06/25 01:57:49;;;;;;;6.25;3.52;;;;;;;18.15;61.81;99535.06;1720095;82;21029;-67
2022/06/25 02:00:20;;;;;;;4.17;3.50;;;;;;;18.12;61.72;99538.81;1706038;82;21576;-66
2022/06/25 02:02:50;;;;;;;6.58;3.60;;;;;;;18.12;61.53;99538.81;1722713;82;22134;-66
2022/06/25 02:05:18;;;;;;;6.75;4.08;;;;;;;18.11;61.60;99536.27;1718212;82;21033;-66
2022/06/25 02:07:45;;;;;;;3.90;3.20;;;;;;;18.09;61.55;99535.05;1718292;82;21616;-67
2022/06/25 02:10:13;;;;;;;8.60;3.65;;;;;;;18.09;61.74;99533.22;1716984;82;21132;-65
2022/06/25 02:12:40;;;;;;;3.47;3.17;;;;;;;18.16;61.84;99535.41;1709087;82;21542;-66
2022/06/25 02:15:09;;;;;;;3.37;3.08;;;;;;;18.18;61.91;99534.34;1719007;82;22054;-66
2022/06/25 02:17:36;;;;;;;4.55;3.40;;;;;;;18.15;61.84;99534.56;1715716;82;20993;-66
2022/06/25 02:20:04;;;;;;;8.93;4.60;;;;;;;18.13;62.04;99533.00;1694867;82;21082;-65
2022/06/25 02:22:31;;;;;;;5.33;3.42;;;;;;;18.12;62.06;99532.16;1689765;83;21566;-65
2022/06/25 02:24:58;;;;;;;6.45;3.10;;;;;;;18.10;62.08;99535.39;1682269;83;21731;-65
2022/06/25 02:27:25;;;;;;;5.15;3.20;;;;;;;18.11;62.42;99536.27;1689661;83;21787;-65
2022/06/25 02:29:52;;;;;;;4.10;3.35;;;;;;;18.18;62.35;99542.82;1687270;83;21594;-65
2022/06/25 02:32:18;;;;;;;3.95;3.65;;;;;;;18.22;62.18;99544.28;1686740;82;21613;-66
2022/06/25 02:34:45;;;;;;;3.83;3.42;;;;;;;18.23;62.03;99541.50;1686746;83;21691;-66
2022/06/25 02:37:12;;;;;;;3.83;3.52;;;;;;;18.23;61.88;99540.17;1684908;83;21469;-65
2022/06/25 02:39:39;;;;;;;5.45;3.52;;;;;;;18.22;61.77;99542.45;1670188;84;21764;-65
2022/06/25 02:42:06;;;;;;;5.95;3.35;;;;;;;18.20;61.86;99547.05;1699155;83;21092;-65
2022/06/25 02:44:34;;;;;;;5.35;3.90;;;;;;;18.18;61.80;99542.82;1664177;83;21561;-66
2022/06/25 02:47:01;;;;;;;4.15;3.75;;;;;;;18.21;62.11;99544.73;1734975;82;21400;-66
2022/06/25 02:49:30;;;;;;;5.47;3.25;;;;;;;18.29;62.19;99542.36;1720742;82;20922;-65
2022/06/25 02:51:57;;;;;;;4.50;3.17;;;;;;;18.34;62.16;99537.16;1735769;81;21861;-66
2022/06/25 02:54:24;;;;;;;5.40;3.47;;;;;;;18.37;62.17;99542.27;1725232;82;21444;-65
2022/06/25 02:59:43;;;;;;;5.97;3.58;;;;;;;18.38;62.08;99542.61;1732232;82;21504;-66
2022/06/25 03:02:09;;;;;;;4.73;3.70;;;;;;;18.39;62.11;99546.98;1732640;82;21512;-65
2022/06/25 03:04:38;;;;;;;5.50;3.60;;;;;;;18.41;62.23;99554.36;1730715;82;21932;-66
2022/06/25 03:07:06;;;;;;;;;;;;;;;18.42;62.35;99557.38;1733612;81;21557;-66
2022/06/25 03:09:32;;;;;;;3.17;2.98;;;;;;;18.51;62.75;99553.16;1734470;82;20458;-66
2022/06/25 03:11:59;;;;;;;4.12;3.33;;;;;;;18.61;62.26;99555.47;1730072;81;21493;-66
2022/06/25 03:14:27;;;;;;;;;;;;;;;18.67;62.16;99550.52;1733774;82;21403;-65
2022/06/25 03:16:54;;;;;;;5.22;3.42;;;;;;;18.71;62.44;99549.80;1739241;82;22596;-65
2022/06/25 03:19:23;;;;;;;10.05;3.80;;;;;;;18.72;62.00;99543.49;1732612;80;21046;-65
2022/06/25 03:21:55;;;;;;;3.75;3.45;;;;;;;18.78;61.83;99555.48;1743656;80;21558;-64
2022/06/25 03:24:22;;;;;;;3.80;3.40;;;;;;;18.81;61.85;99555.28;1748350;80;21563;-64
2022/06/25 03:26:49;;;;;;;3.90;3.10;;;;;;;18.88;61.87;99559.16;1740391;80;21490;-64
2022/06/25 03:29:16;;;;;;;4.85;3.42;;;;;;;19.01;61.75;99556.39;1750660;80;21559;-63
2022/06/25 03:31:43;;;;;;;4.78;3.50;;;;;;;19.12;61.53;99555.51;1741855;80;21511;-64
2022/06/25 03:34:12;;;;;;;4.05;3.58;;;;;;;19.20;61.54;99557.94;1756701;80;21601;-65
2022/06/25 03:36:49;;;;;;;4.80;3.02;;;;;;;19.29;61.07;99553.70;1752565;80;21526;-66
2022/06/25 03:39:16;;;;;;;4.40;3.52;;;;;;;19.38;60.96;99558.75;1747792;80;21543;-65
2022/06/25 03:41:43;;;;;;;4.03;3.37;;;;;;;19.45;60.69;99555.46;1748366;80;22127;-64
2022/06/25 03:44:23;;;;;;;3.72;3.10;;;;;;;19.56;60.25;99563.93;1759499;80;21530;-66
2022/06/25 03:46:52;;;;;;;3.15;2.80;;;;;;;19.69;60.15;99562.94;1753603;80;21436;-65
2022/06/25 03:49:19;;;;;;;5.25;3.10;;;;;;;19.85;60.29;99564.71;1751069;80;21041;-65
2022/06/25 03:51:56;;;;;;;4.65;3.50;;;;;;;19.99;59.91;99569.77;1755814;80;21637;-64
2022/06/25 03:54:23;;;;;;;8.08;2.77;;;;;;;20.09;59.55;99580.52;1745676;80;21768;-65
2022/06/25 03:56:50;;;;;;;3.40;2.90;;;;;;;20.23;59.28;99575.38;1737117;80;21451;-65
2022/06/25 03:59:17;;;;;;;7.87;3.10;;;;;;;20.35;58.74;99580.16;1755215;80;21579;-65
2022/06/25 04:01:45;;;;;;;3.37;3.08;;;;;;;20.45;58.21;99577.05;1712253;82;21579;-65
2022/06/25 04:04:12;;;;;;;3.58;3.12;;;;;;;20.55;57.97;99579.31;1718409;82;21563;-64
2022/06/25 04:06:39;;;;;;;3.30;3.10;;;;;;;20.70;57.46;99570.97;1747550;80;21855;-64
2022/06/25 04:09:07;;;;;;;3.70;2.87;;;;;;;20.80;57.02;99574.56;1741601;80;21059;-66
2022/06/25 04:11:34;;;;;;;4.20;3.17;;;;;;;20.88;56.64;99572.05;1742340;80;20959;-64
2022/06/25 04:14:02;;;;;;;4.42;3.02;;;;;;;20.95;56.29;99574.55;1748822;80;20946;-64
2022/06/25 04:16:29;;;;;;;3.73;3.40;;;;;;;21.02;56.15;99576.22;1750981;80;21034;-65
2022/06/25 04:18:58;;;;;;;4.67;3.05;;;;;;;21.15;56.30;99581.30;1749333;80;21818;-65
2022/06/25 04:21:27;;;;;;;5.80;3.30;;;;;;;21.29;56.29;99581.44;1752334;80;21592;-66
2022/06/25 04:23:53;;;;;;;3.83;2.95;;;;;;;21.41;56.07;99577.66;1767031;80;21495;-65
2022/06/25 04:26:22;;;;;;;5.05;3.00;;;;;;;21.49;55.99;99585.03;1755047;80;21439;-66
2022/06/25 04:29:04;;;;;;;5.10;2.95;;;;;;;21.55;55.34;99581.33;1761187;79;21517;-66
2022/06/25 04:31:36;;;;;;;3.50;3.20;;;;;;;21.63;54.78;99582.48;1765377;80;21951;-66
2022/06/25 04:34:05;;;;;;;6.85;3.00;;;;;;;21.69;54.69;99583.25;1747174;80;21435;-66
2022/06/25 04:36:34;;;;;;;6.80;3.33;;;;;;;21.78;54.13;99591.79;1756256;80;21460;-65
2022/06/25 04:39:20;;;;;;;6.53;3.40;;;;;;;21.87;53.77;99592.77;1753656;80;21443;-65
2022/06/25 04:41:47;;;;;;;3.63;3.30;;;;;;;21.96;53.04;99596.81;1750184;80;21552;-65
2022/06/25 04:44:16;;;;;;;3.60;3.30;;;;;;;22.05;52.75;99593.77;1751595;80;21897;-65
2022/06/25 04:46:43;;;;;;;3.45;3.15;;;;;;;22.13;52.70;99597.95;1767110;80;21573;-64
2022/06/25 04:49:10;;;;;;;3.50;3.20;;;;;;;22.22;52.64;99598.08;1757324;80;21078;-65
2022/06/25 04:51:39;;;;;;;4.60;3.00;;;;;;;22.28;52.73;99596.20;1751305;80;21592;-64
2022/06/25 04:54:06;;;;;;;3.30;3.00;;;;;;;22.35;52.71;99599.50;1753868;80;21566;-62
2022/06/25 04:56:39;;;;;;;3.17;2.83;;;;;;;22.43;52.90;99593.42;1760947;80;21466;-60
2022/06/25 04:59:05;;;;;;;4.42;3.08;;;;;;;22.53;52.50;99603.65;1755703;80;21601;-60
2022/06/25 05:01:51;;;;;;;4.17;2.65;;;;;;;22.63;51.71;99605.47;1754161;80;21503;-61
2022/06/25 05:04:21;;;;;;;4.28;3.20;;;;;;;22.70;51.33;99603.91;1763858;80;21486;-60
2022/06/25 05:06:49;;;;;;;4.85;3.05;;;;;;;22.78;50.87;99613.91;1763424;80;21502;-59
2022/06/25 05:09:16;;;;;;;4.97;3.30;;;;;;;22.83;50.53;99611.61;1753303;80;21810;-59
2022/06/25 05:11:43;;;;;;;2.92;2.62;;;;;;;23.00;49.79;99604.64;1757501;80;21411;-60
2022/06/25 05:14:10;;;;;;;4.12;3.25;;;;;;;23.00;49.79;99604.64;1760287;80;21498;-59
2022/06/25 05:16:37;;;;;;;3.67;3.37;;;;;;;23.05;49.62;99605.92;1754738;80;21527;-59
2022/06/25 05:19:04;;;;;;;8.20;3.43;;;;;;;23.10;49.35;99606.34;1762126;79;21021;-59
2022/06/25 05:21:31;;;;;;;3.35;2.92;;;;;;;23.17;49.36;99605.27;1744184;80;21899;-59
2022/06/25 05:24:00;;;;;;;3.70;3.05;;;;;;;23.27;49.42;99609.25;1752663;80;21523;-59
2022/06/25 05:26:27;;;;;;;4.53;3.12;;;;;;;23.27;49.42;99609.25;1757239;80;21467;-59
2022/06/25 05:28:54;;;;;;;3.50;3.00;;;;;;;23.37;49.46;99606.52;1752252;80;27128;-59
2022/06/25 05:31:22;;;;;;;3.00;2.53;;;;;;;23.47;49.32;99614.86;1754880;80;21617;-59
2022/06/25 05:33:49;;;;;;;7.83;3.00;;;;;;;23.55;49.52;99611.43;1746058;80;21538;-59
2022/06/25 05:36:17;;;;;;;6.20;2.90;;;;;;;23.64;49.07;99605.16;1755559;80;21519;-59
2022/06/25 05:38:43;;;;;;;4.35;2.92;;;;;;;23.71;48.88;99606.73;1753304;80;28463;-59
2022/06/25 05:41:12;;;;;;;5.10;3.02;;;;;;;23.80;48.88;99608.55;1682551;84;21578;-60
2022/06/25 05:43:39;;;;;;;4.95;2.77;;;;;;;23.85;48.31;99605.42;1752809;80;21573;-60
2022/06/25 05:46:06;;;;;;;9.68;2.95;;;;;;;23.90;47.92;99611.16;1741110;80;21809;-59
2022/06/25 05:48:34;;;;;;;3.67;3.22;;;;;;;23.96;47.54;99610.56;1749687;80;21478;-59
2022/06/25 05:51:01;;;;;;;3.70;2.90;;;;;;;24.10;47.72;99611.36;1748332;80;21601;-59
2022/06/25 05:53:28;;;;;;;6.17;2.90;;;;;;;24.10;47.72;99611.36;1745936;80;21487;-59
2022/06/25 05:55:54;;;;;;;3.17;2.87;;;;;;;24.29;47.30;99612.20;1741442;80;21487;-60
2022/06/25 05:58:22;;;;;;;2.95;2.75;;;;;;;24.29;47.30;99612.20;1750819;80;21753;-59
2022/06/25 06:00:49;;;;;;;3.08;2.87;;;;;;;24.38;46.72;99609.93;1758967;80;21712;-62
2022/06/25 06:03:15;;;;;;;2.92;2.72;;;;;;;24.48;46.80;99610.67;1756158;80;21482;-60
2022/06/25 06:05:42;;;;;;;3.83;2.70;;;;;;;24.72;45.71;99618.61;1744915;80;21468;-60
2022/06/25 06:08:09;;;;;;;4.83;2.60;;;;;;;24.72;45.71;99618.61;1758233;80;21570;-61
2022/06/25 06:10:36;;;;;;;2.70;2.50;;;;;;;24.82;45.07;99613.96;1752345;80;21808;-60
2022/06/25 06:13:03;;;;;;;8.55;2.45;;;;;;;24.85;44.65;99615.00;1690874;84;20967;-61
2022/06/25 06:15:30;;;;;;;5.70;2.85;;;;;;;24.98;44.83;99614.58;1748970;80;21436;-60
2022/06/25 06:17:57;;;;;;;6.08;3.00;;;;;;;24.98;44.83;99614.58;1752124;80;21507;-60
2022/06/25 06:20:23;;;;;;;2.73;2.40;;;;;;;25.09;44.64;99622.02;1753212;80;21735;-60
2022/06/25 06:22:50;;;;;;;5.22;2.77;;;;;;;25.18;44.81;99617.02;1764470;80;21871;-61
2022/06/25 06:25:17;;;;;;;3.85;2.65;;;;;;;25.27;44.46;99621.98;1752998;80;21430;-62
2022/06/25 06:27:43;;;;;;;3.67;2.47;;;;;;;25.45;43.90;99614.67;1756887;80;21526;-62
2022/06/25 06:30:11;;;;;;;8.15;3.02;;;;;;;25.45;43.90;99614.67;1757529;80;21621;-62
2022/06/25 06:32:38;;;;;;;4.20;2.12;;;;;;;25.48;43.35;99608.95;1759383;80;21033;-60
2022/06/25 06:35:06;;;;;;;4.17;2.27;;;;;;;25.53;42.94;99614.69;1751744;80;21931;-60
2022/06/25 06:37:32;;;;;;;3.08;2.50;;;;;;;25.59;42.86;99611.34;1764705;80;21431;-61
2022/06/25 06:39:59;;;;;;;4.42;2.90;;;;;;;25.74;43.05;99607.52;1753052;80;21498;-60
2022/06/25 06:42:25;;;;;;;7.17;2.70;;;;;;;25.74;43.05;99607.52;1763927;80;21563;-62
2022/06/25 06:44:52;;;;;;;2.92;2.65;;;;;;;25.83;42.83;99609.73;1763872;80;21522;-60
2022/06/25 06:47:19;;;;;;;4.72;2.50;;;;;;;25.88;42.58;99604.70;1759402;80;21888;-61
2022/06/25 06:49:46;;;;;;;3.02;2.83;;;;;;;25.93;42.52;99612.30;1752160;80;21525;-60
2022/06/25 06:52:13;;;;;;;3.75;2.45;;;;;;;26.00;42.02;99607.95;1767998;80;21581;-61
2022/06/25 06:54:40;;;;;;;3.65;2.77;;;;;;;26.01;42.23;99617.22;1750911;80;21498;-61
2022/06/25 06:57:07;;;;;;;2.60;2.40;;;;;;;26.07;42.34;99610.80;1753701;80;21514;-61
2022/06/25 06:59:34;;;;;;;3.00;2.47;;;;;;;26.14;41.95;99609.96;1753478;80;21808;-61
2022/06/25 07:02:00;;;;;;;4.62;2.30;;;;;;;26.25;42.02;99614.70;1754014;80;21565;-60
2022/06/25 07:04:28;;;;;;;3.10;2.60;;;;;;;26.41;41.51;99620.11;1757307;80;21601;-61
2022/06/25 07:06:55;;;;;;;3.92;1.87;;;;;;;26.47;40.75;99624.81;1758005;80;21594;-60
2022/06/25 07:09:22;;;;;;;3.47;2.10;;;;;;;26.54;40.58;99622.27;1746473;80;21644;-60
2022/06/25 07:11:49;;;;;;;2.33;2.20;;;;;;;26.58;40.31;99619.08;1766788;80;21744;-59
2022/06/25 07:14:16;;;;;;;3.00;2.62;;;;;;;26.65;39.86;99618.42;1762256;80;21519;-62
2022/06/25 07:16:43;;;;;;;3.92;2.10;;;;;;;26.73;39.74;99617.05;1758008;80;25679;-62
2022/06/25 07:19:11;;;;;;;6.25;2.37;;;;;;;26.84;39.11;99615.34;1757092;80;22397;-62
2022/06/25 07:21:37;;;;;;;2.55;2.33;;;;;;;26.92;38.83;99614.00;1759505;80;21562;-61
2022/06/25 07:24:05;;;;;;;6.65;2.20;;;;;;;26.95;39.13;99614.98;1742276;80;21860;-60
2022/06/25 07:26:32;;;;;;;5.45;2.27;;;;;;;27.00;38.82;99616.67;1691388;82;21564;-61
2022/06/25 07:28:59;;;;;;;3.65;2.22;;;;;;;27.07;38.91;99613.27;1755261;80;21526;-61
2022/06/25 07:31:28;;;;;;;3.33;2.43;;;;;;;27.11;38.50;99620.03;1756457;80;21480;-60
2022/06/25 07:33:54;;;;;;;2.30;2.20;;;;;;;27.07;38.77;99615.48;1740280;80;21538;-61
2022/06/25 07:36:21;;;;;;;3.20;1.85;;;;;;;27.01;38.53;99617.50;1756043;80;21815;-61
2022/06/25 07:38:47;;;;;;;4.12;2.20;;;;;;;26.96;38.17;99612.64;1757265;80;21579;-61
2022/06/25 07:41:14;;;;;;;3.77;2.30;;;;;;;26.91;38.48;99608.26;1741547;80;20990;-60
2022/06/25 07:43:41;;;;;;;2.92;2.20;;;;;;;26.97;38.63;99611.64;1735361;80;21525;-59
2022/06/25 07:46:09;;;;;;;3.75;2.20;;;;;;;27.14;38.54;99612.44;1743126;80;21057;-60
2022/06/25 07:48:36;;;;;;;4.72;2.20;;;;;;;27.34;38.43;99615.58;1754507;80;21904;-60
2022/06/25 07:53:48;;;;;;;4.80;2.08;;;;;;;27.67;38.17;99619.49;1754840;80;21054;-61
2022/06/25 07:56:15;;;;;;;3.35;2.17;;;;;;;27.86;37.58;99617.34;1743381;80;21059;-61
2022/06/25 07:58:43;;;;;;;2.10;2.00;;;;;;;28.02;37.35;99618.63;1747540;80;21403;-60
2022/06/25 08:01:10;;;;;;;3.92;2.10;;;;;;;28.12;37.25;99621.95;1749335;80;21566;-60
2022/06/25 08:03:37;;;;;;;3.00;2.00;;;;;;;28.20;37.05;99619.69;1746895;80;27199;-61
2022/06/25 08:06:04;;;;;;;2.45;2.00;;;;;;;28.29;37.01;99609.15;1749189;80;21451;-60
2022/06/25 08:08:30;;;;;;;3.12;2.15;;;;;;;28.36;36.10;99606.55;1741680;80;21013;-61
2022/06/25 08:10:58;;;;;;;2.27;2.10;;;;;;;28.30;35.93;99608.11;1742852;80;21033;-61
2022/06/25 08:13:26;;;;;;;2.02;1.85;;;;;;;28.27;36.23;99610.33;1750601;80;22010;-61
2022/06/25 08:15:52;;;;;;;2.30;2.10;;;;;;;28.31;36.13;99615.70;1739750;80;21533;-61
2022/06/25 08:18:20;;;;;;;2.00;1.80;;;;;;;28.37;36.30;99625.81;1746212;80;21570;-61
2022/06/25 08:20:47;;;;;;;4.37;2.05;;;;;;;28.34;35.79;99621.59;1742617;80;21550;-61
2022/06/25 08:23:13;;;;;;;4.78;2.02;;;;;;;28.26;35.64;99622.19;1743093;80;21483;-61
2022/06/25 08:25:40;;;;;;;3.47;2.27;;;;;;;28.22;35.76;99624.41;1737413;80;22090;-61
2022/06/25 08:28:07;;;;;;;4.03;2.08;;;;;;;28.27;36.00;99616.57;1737472;80;21063;-61
2022/06/25 08:30:34;;;;;;;5.08;1.90;;;;;;;28.29;35.99;99618.61;1721927;80;21455;-60
2022/06/25 08:33:01;;;;;;;2.87;1.87;;;;;;;28.27;35.98;99616.57;1694573;83;21039;-60
2022/06/25 08:35:29;;;;;;;5.75;2.00;;;;;;;28.26;36.28;99612.20;1749474;80;20978;-61
2022/06/25 08:37:56;;;;;;;2.97;2.50;;;;;;;28.43;36.39;99610.72;1744928;80;22027;-61
2022/06/25 08:40:23;;;;;;;;;;;;;;;28.43;36.39;99610.72;1751744;79;21084;-61
2022/06/25 08:42:49;;;;;;;2.37;2.17;;;;;;;28.54;36.82;99609.80;1750047;80;20438;-60
2022/06/25 08:45:17;;;;;;;2.15;1.95;;;;;;;28.70;36.44;99604.73;1746790;80;21902;-60
2022/06/25 08:47:48;;;;;;;2.70;2.10;;;;;;;28.83;36.26;99610.03;1754962;80;21491;-62
2022/06/25 08:50:15;;;;;;;8.08;2.10;;;;;;;28.89;36.01;99604.70;1753240;80;21832;-60
2022/06/25 08:52:49;;;;;;;2.75;2.55;;;;;;;28.95;36.87;99600.42;1732368;80;21431;-60
2022/06/25 08:55:32;;;;;;;2.20;2.00;;;;;;;29.04;37.01;99605.23;1751089;80;21613;-61
2022/06/25 08:58:01;;;;;;;3.87;2.10;;;;;;;29.19;36.86;99597.98;1738154;80;21463;-60
2022/06/25 09:00:33;;;;;;;3.55;2.02;;;;;;;29.38;35.84;99601.98;1746665;80;21030;-63
2022/06/25 09:03:00;;;;;;;4.55;2.05;;;;;;;29.46;35.10;99598.32;1743776;80;21924;-62
2022/06/25 09:05:34;;;;;;;2.47;2.15;;;;;;;29.50;35.26;99595.58;1754815;80;21514;-61
2022/06/25 09:08:05;;;;;;;1.92;1.77;;;;;;;29.48;35.49;99610.66;1748544;80;21576;-61
2022/06/25 09:10:33;;;;;;;4.65;2.22;;;;;;;29.44;35.95;99608.50;1748380;80;21440;-61
2022/06/25 09:13:03;;;;;;;2.75;2.17;;;;;;;29.46;35.85;99608.66;1748104;80;20993;-61
2022/06/25 09:15:39;;;;;;;5.00;2.08;;;;;;;29.48;34.80;99599.83;1755147;80;21873;-61
2022/06/25 09:18:10;;;;;;;2.50;2.00;;;;;;;29.56;34.54;99606.17;1753594;80;21625;-61
2022/06/25 09:20:59;;;;;;;2.62;2.42;;;;;;;29.60;34.69;99607.47;1747925;80;20994;-62
2022/06/25 09:23:27;;;;;;;2.30;2.10;;;;;;;29.62;34.04;99608.11;1755653;80;21545;-61
2022/06/25 09:26:08;;;;;;;2.72;1.82;;;;;;;29.62;34.36;99613.00;1754425;80;21448;-62
2022/06/25 09:28:38;;;;;;;5.15;2.02;;;;;;;29.76;34.09;99609.12;1750496;79;21447;-61
2022/06/25 09:31:05;;;;;;;4.35;2.20;;;;;;;29.87;33.40;99608.62;1753205;80;20927;-61
2022/06/25 09:33:33;;;;;;;3.95;2.37;;;;;;;29.92;33.50;99613.48;1747367;80;21543;-61
2022/06/25 09:36:00;;;;;;;3.05;1.85;;;;;;;29.89;33.36;99606.56;1744628;80;21518;-61
2022/06/25 09:38:28;;;;;;;3.47;2.40;;;;;;;29.83;33.64;99605.98;1742374;80;21569;-61
2022/06/25 09:40:57;;;;;;;3.17;2.20;;;;;;;29.93;33.77;99600.24;1745049;80;22064;-61
2022/06/25 09:43:26;;;;;;;2.17;2.02;;;;;;;30.05;33.20;99602.78;1757625;80;21554;-60
2022/06/25 09:45:56;;;;;;;4.33;2.10;;;;;;;30.15;33.05;99603.81;1746187;80;21565;-60
2022/06/25 09:48:28;;;;;;;2.22;2.02;;;;;;;30.21;32.24;99601.14;1746358;80;21424;-60
2022/06/25 09:51:12;;;;;;;2.15;2.05;;;;;;;30.19;32.17;99607.28;1751075;80;21583;-61
2022/06/25 09:53:52;;;;;;;3.90;1.92;;;;;;;30.19;32.70;99597.79;1750817;80;21780;-61
2022/06/25 09:56:21;;;;;;;1.92;1.82;;;;;;;30.24;32.45;99599.94;1751605;80;21498;-61
2022/06/25 09:58:48;;;;;;;3.62;2.20;;;;;;;30.30;32.67;99599.67;1742216;80;21504;-61
2022/06/25 10:01:18;;;;;;;2.20;2.10;;;;;;;30.34;32.53;99610.48;1750627;80;21511;-61
2022/06/25 10:03:46;;;;;;;3.62;1.87;;;;;;;30.33;31.81;99609.65;1755358;80;21490;-61
2022/06/25 10:06:13;;;;;;;;;;;;;;;30.11;31.78;99610.13;1754144;80;21822;-61
2022/06/25 10:08:41;;;;;;;;;;;;;;;29.91;31.64;99607.20;1763407;80;20423;-61
2022/06/25 10:11:09;;;;;;;2.10;1.70;;;;;;;29.74;32.62;99609.31;1752850;80;20184;-61
2022/06/25 10:13:36;;;;;;;3.95;2.35;;;;;;;29.71;32.37;99600.20;1755836;80;21554;-61
2022/06/25 10:16:03;;;;;;;3.47;2.00;;;;;;;29.83;32.31;99600.03;1748109;80;21613;-61
2022/06/25 10:18:31;;;;;;;2.47;2.10;;;;;;;29.96;32.29;99608.00;1739542;80;21796;-61
2022/06/25 10:20:57;;;;;;;3.50;1.92;;;;;;;29.87;32.23;99605.39;1750879;80;21041;-64
2022/06/25 10:23:24;;;;;;;2.65;1.70;;;;;;;29.79;32.65;99613.66;1750489;80;21548;-63
2022/06/25 10:25:50;;;;;;;2.10;1.75;;;;;;;29.83;32.67;99604.10;1728301;80;21565;-62
2022/06/25 10:28:26;;;;;;;2.67;2.47;;;;;;;29.85;33.17;99600.68;1762363;80;21554;-64
2022/06/25 10:30:56;;;;;;;2.52;2.17;;;;;;;29.94;33.05;99600.58;1753157;80;21801;-60
2022/06/25 10:33:28;;;;;;;5.45;1.95;;;;;;;30.09;33.08;99593.22;1747849;80;21439;-59
2022/06/25 10:36:04;;;;;;;2.92;2.10;;;;;;;30.25;32.77;99597.03;1756285;80;21496;-63
2022/06/25 10:38:28;;;;;;;4.28;2.15;;;;;;;30.42;32.50;99586.78;1759408;80;21554;-62
2022/06/25 10:43:55;;;;;;;3.02;2.30;;;;;;;30.72;32.05;99585.73;1754678;80;21809;-64
2022/06/25 10:46:36;;;;;;;8.95;2.45;;;;;;;30.75;31.82;99592.96;1760691;80;21532;-62
2022/06/25 10:49:17;;;;;;;3.30;2.20;;;;;;;30.69;31.77;99596.48;1752125;80;21096;-61
2022/06/25 10:51:51;;;;;;;4.97;2.35;;;;;;;30.51;31.76;99598.30;1736642;80;21452;-62
2022/06/25 10:54:33;;;;;;;4.08;2.10;;;;;;;30.35;32.04;99602.16;1763559;80;21406;-62
2022/06/25 10:57:00;;;;;;;4.97;2.08;;;;;;;30.16;32.37;99571.09;1729450;80;22175;-62
2022/06/25 10:59:37;;;;;;;4.55;2.30;;;;;;;30.33;33.20;99586.59;1761601;80;26988;-63
2022/06/25 11:02:07;;;;;;;4.12;1.95;;;;;;;30.43;33.10;99583.02;1758306;80;21436;-61
2022/06/25 11:04:33;;;;;;;2.42;1.98;;;;;;;30.55;32.16;99587.91;1750873;80;21451;-63
2022/06/25 11:07:14;;;;;;;2.92;2.15;;;;;;;30.69;32.33;99593.77;1763858;80;21100;-62
2022/06/25 11:09:56;;;;;;;2.08;1.90;;;;;;;30.88;31.88;99582.72;1762495;80;21802;-62
2022/06/25 11:12:24;;;;;;;2.10;1.98;;;;;;;31.01;32.28;99578.75;1766242;80;21456;-62
2022/06/25 11:15:04;;;;;;;5.22;2.83;;;;;;;31.07;31.49;99585.78;1762985;80;21510;-61
2022/06/25 11:17:31;;;;;;;3.35;2.02;;;;;;;30.98;31.78;99583.74;1764316;80;21581;-61
2022/06/25 11:20:10;;;;;;;3.42;1.82;;;;;;;30.88;31.43;99584.08;1761558;80;21563;-61
2022/06/25 11:22:51;;;;;;;3.08;2.02;;;;;;;30.73;31.15;99595.03;1749199;80;21843;-61
2022/06/25 11:30:49;;;;;;;5.28;2.12;;;;;;;30.70;31.97;99578.31;1746641;80;21474;-62
2022/06/25 11:33:16;;;;;;;2.90;2.15;;;;;;;30.82;31.59;99583.00;1748013;80;21003;-61
2022/06/25 11:35:44;;;;;;;4.72;2.35;;;;;;;30.94;31.11;99584.66;1747857;80;21791;-61
2022/06/25 11:38:18;;;;;;;2.92;2.27;;;;;;;31.02;31.74;99565.52;1751048;80;22617;-62
2022/06/25 11:40:45;;;;;;;5.17;2.17;;;;;;;31.09;31.22;99583.18;1746413;80;21582;-62
2022/06/25 11:43:13;;;;;;;5.08;2.30;;;;;;;31.14;30.89;99581.23;1757683;80;21664;-64
2022/06/25 11:45:50;;;;;;;2.10;2.00;;;;;;;31.18;30.43;99587.94;1760403;79;21507;-61
2022/06/25 11:48:17;;;;;;;2.98;2.30;;;;;;;31.17;30.71;99578.09;1748329;80;21519;-61
2022/06/25 11:50:44;;;;;;;2.47;2.05;;;;;;;31.25;30.99;99588.81;1748416;80;21021;-61
2022/06/25 11:53:10;;;;;;;3.50;1.80;;;;;;;31.34;31.32;99584.03;1746227;80;21554;-61
2022/06/25 11:55:38;;;;;;;5.37;1.83;;;;;;;31.43;31.36;99579.56;1728491;80;21499;-61